Time;durP1;ratioP1;P1;durP2;ratioP2;P2;SDS_P1;SDS_P2;PMS_P1;PMS_P2;Temp;Humidity;BMP_temperature;BMP_pressure;BME280_temperature;BME280_humidity;BME280_pressure;Samples;Min_cycle;Max_cycle;Signal;HPM_P1;HPM_P2
2021/07/17 00:02:16;;;;;;;6.10;4.65;;;;;;;28.16;42.42;97141.97;5002001;28;20021;-30
2021/07/17 00:04:43;;;;;;;7.13;5.68;;;;;;;28.15;42.27;97144.69;5003053;28;20018;-32
2021/07/17 00:07:09;;;;;;;6.50;5.13;;;;;;;28.16;42.35;97139.31;5007319;28;20123;-31
2021/07/17 00:09:34;;;;;;;6.90;4.97;;;;;;;28.17;42.43;97140.16;5006415;28;20495;-32
2021/07/17 00:12:00;;;;;;;7.63;5.35;;;;;;;28.17;42.31;97137.53;4990408;28;20028;-34
2021/07/17 00:15:23;;;;;;;7.43;4.85;;;;;;;-148.56;100.00;61375.16;5002967;28;20037;-29
2021/07/17 00:18:01;;;;;;;9.52;5.47;;;;;;;-148.56;49.92;61375.16;5001332;28;20053;-29
2021/07/17 00:20:27;;;;;;;7.35;5.30;;;;;;;28.21;42.12;97143.44;5006466;28;20500;-30
2021/07/17 00:23:11;;;;;;;6.85;5.05;;;;;;;28.21;42.12;97143.44;5005904;28;20033;-31
2021/07/17 00:25:37;;;;;;;11.18;5.38;;;;;;;28.20;42.25;97147.03;5006797;28;20026;-32
2021/07/17 00:28:02;;;;;;;5.97;4.88;;;;;;;28.18;42.33;97147.97;4999800;28;20076;-30
2021/07/17 00:30:27;;;;;;;7.18;5.22;;;;;;;28.17;42.23;97141.03;5001484;28;20040;-30
2021/07/17 00:32:53;;;;;;;8.65;5.25;;;;;;;28.19;42.32;97133.03;5005413;28;20551;-29
2021/07/17 00:35:18;;;;;;;6.88;5.43;;;;;;;28.18;42.30;97137.44;5004809;28;20025;-30
2021/07/17 00:37:44;;;;;;;13.70;5.28;;;;;;;28.18;42.21;97123.41;5006808;28;20029;-31
2021/07/17 00:40:10;;;;;;;9.43;4.80;;;;;;;28.18;42.18;97128.66;5001338;28;20024;-31
2021/07/17 00:42:41;;;;;;;12.65;6.05;;;;;;;28.18;42.26;97128.66;5002136;28;20479;-32
2021/07/17 00:45:07;;;;;;;11.18;5.60;;;;;;;28.17;42.29;97122.56;5002393;28;20072;-30
2021/07/17 00:47:33;;;;;;;8.85;5.38;;;;;;;28.17;42.25;97121.72;4998898;28;20667;-31
2021/07/17 00:49:59;;;;;;;11.10;5.85;;;;;;;28.17;42.29;97117.31;5007839;28;20115;-31
2021/07/17 00:52:24;;;;;;;7.78;5.20;;;;;;;28.17;42.45;97126.97;5005264;28;20033;-30
2021/07/17 00:54:50;;;;;;;12.48;5.82;;;;;;;28.17;42.22;97121.72;5008237;28;20028;-31
2021/07/17 00:57:16;;;;;;;9.52;5.97;;;;;;;28.17;42.34;97116.44;4994324;28;20032;-30
2021/07/17 00:59:41;;;;;;;7.50;5.75;;;;;;;28.17;42.24;97106.75;5003561;28;20033;-27
2021/07/17 01:02:08;;;;;;;8.57;5.20;;;;;;;28.17;42.37;97106.75;4971033;28;20030;-30
2021/07/17 01:04:33;;;;;;;8.77;5.68;;;;;;;28.16;42.29;97105.06;4986663;28;20025;-31
2021/07/17 01:06:59;;;;;;;8.60;5.75;;;;;;;28.17;42.32;97101.50;4986663;28;20069;-32
2021/07/17 01:09:25;;;;;;;9.68;5.50;;;;;;;28.19;42.34;97114.59;5003249;28;20531;-30
2021/07/17 01:11:51;;;;;;;10.15;5.90;;;;;;;28.17;42.13;97109.41;5003719;28;20041;-29
2021/07/17 01:14:17;;;;;;;9.15;5.47;;;;;;;28.18;42.24;97112.88;5019531;28;21699;-31
2021/07/17 01:16:42;;;;;;;9.15;5.78;;;;;;;28.18;42.39;97105.81;5005074;28;20017;-29
2021/07/17 01:19:10;;;;;;;11.77;6.20;;;;;;;28.18;42.22;97108.47;4987334;28;20033;-29
2021/07/17 01:21:35;;;;;;;8.10;5.05;;;;;;;28.18;42.07;97102.31;5007732;28;20168;-30
2021/07/17 01:24:01;;;;;;;9.98;6.03;;;;;;;28.18;42.18;97108.47;5006065;28;20026;-28
2021/07/17 01:26:26;;;;;;;8.30;6.03;;;;;;;28.21;42.39;97106.56;5002621;28;20030;-29
2021/07/17 01:28:52;;;;;;;7.22;5.75;;;;;;;28.20;42.05;97105.72;4999894;28;20034;-29
2021/07/17 01:31:18;;;;;;;6.45;5.70;;;;;;;28.20;42.13;97111.00;5005274;28;20021;-31
2021/07/17 01:33:43;;;;;;;6.28;5.60;;;;;;;28.21;42.21;97110.06;5003411;28;20034;-30
2021/07/17 01:36:09;;;;;;;7.07;6.03;;;;;;;28.22;42.24;97105.66;5007241;28;20029;-29
2021/07/17 01:38:34;;;;;;;7.55;5.85;;;;;;;28.21;42.05;97109.19;5002386;28;20025;-30
2021/07/17 01:41:00;;;;;;;10.40;6.38;;;;;;;28.22;42.12;97117.03;5000123;28;20454;-28
2021/07/17 01:43:25;;;;;;;7.80;6.03;;;;;;;28.22;42.22;97118.81;5003116;28;20729;-29
2021/07/17 01:45:51;;;;;;;7.40;5.90;;;;;;;28.20;42.03;97111.00;5002773;28;20033;-29
2021/07/17 01:48:16;;;;;;;8.88;5.63;;;;;;;28.22;41.88;97117.03;5002628;28;20025;-28
2021/07/17 01:50:42;;;;;;;7.43;5.32;;;;;;;28.24;42.17;97120.44;4997063;28;20104;-29
2021/07/17 01:53:12;;;;;;;7.47;5.22;;;;;;;28.23;41.98;97121.38;5006146;28;20033;-29
2021/07/17 01:55:37;;;;;;;6.05;5.35;;;;;;;28.23;42.06;97120.50;5002114;28;20026;-30
2021/07/17 01:58:03;;;;;;;7.10;5.43;;;;;;;28.24;42.10;97122.19;5003021;28;20090;-32
2021/07/17 02:00:28;;;;;;;8.27;5.28;;;;;;;28.23;41.98;97123.16;5000235;28;20079;-32
2021/07/17 02:02:54;;;;;;;8.68;6.40;;;;;;;28.23;42.02;97115.25;5000741;28;20156;-33
2021/07/17 02:05:20;;;;;;;8.45;5.63;;;;;;;28.23;42.18;97112.59;5005916;28;20029;-31
2021/07/17 02:07:45;;;;;;;8.48;6.50;;;;;;;28.23;42.14;97109.97;4998536;28;20090;-31
2021/07/17 02:10:13;;;;;;;6.38;5.78;;;;;;;28.22;42.05;97114.38;4999054;28;20758;-29
2021/07/17 02:12:39;;;;;;;8.18;6.18;;;;;;;28.23;42.17;97112.59;5001524;28;20104;-30
2021/07/17 02:15:07;;;;;;;9.55;5.90;;;;;;;28.23;42.12;97109.97;5003452;28;21555;-28
2021/07/17 02:17:32;;;;;;;9.43;6.22;;;;;;;28.23;42.06;97109.97;5002624;28;20088;-30
2021/07/17 02:19:58;;;;;;;7.45;4.90;;;;;;;28.23;42.24;97112.59;5004711;28;20488;-33
2021/07/17 02:22:23;;;;;;;6.57;5.65;;;;;;;28.24;42.14;97101.13;5002665;28;20038;-30
2021/07/17 02:24:49;;;;;;;8.02;5.45;;;;;;;28.23;42.08;97096.81;5005238;28;20040;-28
2021/07/17 02:27:14;;;;;;;9.00;5.78;;;;;;;28.25;41.90;97102.81;5009732;28;20025;-28
2021/07/17 02:29:39;;;;;;;9.27;6.00;;;;;;;28.23;42.21;97110.84;5008685;28;20029;-32
2021/07/17 02:32:05;;;;;;;7.70;5.05;;;;;;;28.21;41.92;97101.28;5006163;28;20072;-30
2021/07/17 02:34:30;;;;;;;10.25;6.35;;;;;;;28.25;42.21;97110.72;5007741;28;20410;-28
2021/07/17 02:36:56;;;;;;;7.82;6.07;;;;;;;28.24;41.95;97104.63;5011476;28;20645;-30
2021/07/17 02:39:21;;;;;;;6.78;6.07;;;;;;;28.25;41.95;97108.09;5003901;28;20028;-30
2021/07/17 02:41:47;;;;;;;6.93;6.18;;;;;;;28.25;42.05;97102.81;5008502;28;20017;-31
2021/07/17 02:44:12;;;;;;;7.57;5.80;;;;;;;28.25;41.95;97108.97;5005750;28;20045;-30
2021/07/17 02:46:37;;;;;;;7.63;6.13;;;;;;;28.25;41.99;97101.06;5005788;28;20044;-31
2021/07/17 02:49:03;;;;;;;11.55;6.32;;;;;;;28.25;41.90;97103.72;5009923;28;20029;-27
2021/07/17 02:51:28;;;;;;;8.60;6.13;;;;;;;28.25;41.93;97095.81;4999758;28;20075;-32
2021/07/17 02:53:54;;;;;;;8.52;6.15;;;;;;;28.26;42.07;97096.66;5006324;28;20107;-28
2021/07/17 02:56:19;;;;;;;7.93;6.40;;;;;;;28.26;41.85;97096.66;5004816;28;20010;-31
2021/07/17 02:58:44;;;;;;;7.60;5.40;;;;;;;28.26;41.62;97092.22;5003501;28;20642;-30
2021/07/17 03:01:10;;;;;;;7.57;5.85;;;;;;;28.24;42.07;97090.59;5007339;28;20033;-30
2021/07/17 03:03:35;;;;;;;7.32;6.03;;;;;;;28.26;41.92;97100.13;5006207;28;20025;-33
2021/07/17 03:06:01;;;;;;;10.68;6.50;;;;;;;28.27;41.98;97103.63;5008070;28;20072;-31
2021/07/17 03:08:29;;;;;;;9.65;6.40;;;;;;;28.27;41.90;97098.34;5004846;28;20475;-29
2021/07/17 03:10:55;;;;;;;9.50;6.40;;;;;;;28.27;41.84;97095.72;5007552;28;20031;-31
2021/07/17 03:13:20;;;;;;;11.75;6.95;;;;;;;28.26;42.00;97100.13;5010882;28;20068;-33
2021/07/17 03:15:48;;;;;;;11.45;6.70;;;;;;;28.27;42.03;97108.88;5006142;28;20025;-31
2021/07/17 03:18:13;;;;;;;7.60;6.38;;;;;;;28.26;41.88;97105.41;5003287;28;20025;-29
2021/07/17 03:20:39;;;;;;;6.63;5.85;;;;;;;28.28;41.72;97107.94;5005803;28;20075;-29
2021/07/17 03:23:05;;;;;;;8.88;7.18;;;;;;;28.27;42.03;97100.97;5008760;28;20044;-30
2021/07/17 03:25:30;;;;;;;7.30;6.15;;;;;;;28.27;41.98;97112.34;5005259;28;20569;-30
2021/07/17 03:27:56;;;;;;;8.45;6.07;;;;;;;28.27;42.15;97112.34;5001925;28;20580;-31
2021/07/17 03:30:21;;;;;;;8.57;5.95;;;;;;;28.27;42.06;97106.25;5006661;28;20033;-31
2021/07/17 03:32:47;;;;;;;7.93;6.15;;;;;;;28.27;41.94;97114.16;5022672;28;20459;-29
2021/07/17 03:35:12;;;;;;;8.77;6.10;;;;;;;28.27;41.92;97109.72;5008877;28;20040;-31
2021/07/17 03:37:37;;;;;;;7.15;6.18;;;;;;;28.26;41.96;97108.03;5001562;28;20025;-30
2021/07/17 03:40:04;;;;;;;8.23;6.22;;;;;;;28.27;41.94;97111.53;5006683;28;20068;-31
2021/07/17 03:42:29;;;;;;;9.75;6.28;;;;;;;28.27;41.97;97111.53;5005409;28;20037;-32
2021/07/17 03:44:55;;;;;;;6.53;5.75;;;;;;;28.27;41.87;97111.53;5006922;28;20033;-29
2021/07/17 03:47:21;;;;;;;8.82;6.18;;;;;;;28.24;42.01;97101.97;5001728;28;20021;-29
2021/07/17 03:49:46;;;;;;;7.88;6.47;;;;;;;28.27;42.05;97108.88;5006050;28;20087;-30
2021/07/17 03:52:11;;;;;;;9.38;6.70;;;;;;;28.27;42.02;97103.63;5005489;28;20053;-33
2021/07/17 03:54:37;;;;;;;7.43;6.05;;;;;;;28.27;41.98;97106.25;5009495;28;20033;-31
2021/07/17 03:57:02;;;;;;;6.82;6.13;;;;;;;28.27;41.91;97106.25;5006272;28;20071;-31
2021/07/17 03:59:28;;;;;;;6.28;5.47;;;;;;;28.27;41.65;97100.97;5003057;28;20955;-29
2021/07/17 04:01:53;;;;;;;7.45;5.63;;;;;;;28.28;41.83;97113.22;5003478;28;20025;-34
2021/07/17 04:04:19;;;;;;;10.18;5.88;;;;;;;28.27;41.99;97111.53;5004743;28;20025;-29
2021/07/17 04:06:44;;;;;;;6.25;5.65;;;;;;;28.28;41.98;97113.22;5008044;28;20172;-32
2021/07/17 04:09:10;;;;;;;8.73;6.13;;;;;;;28.29;42.02;97114.91;5002669;28;20026;-31
2021/07/17 04:11:35;;;;;;;7.25;5.93;;;;;;;28.28;41.92;97115.84;5004397;28;20033;-30
2021/07/17 04:14:01;;;;;;;7.28;6.55;;;;;;;28.28;41.82;97115.84;5002229;28;20763;-30
2021/07/17 04:16:26;;;;;;;7.50;6.25;;;;;;;28.27;42.10;97122.06;5002876;28;20025;-29
2021/07/17 04:18:51;;;;;;;7.70;5.97;;;;;;;28.28;41.93;97123.75;5002526;28;20036;-31
2021/07/17 04:21:17;;;;;;;8.13;6.43;;;;;;;28.29;41.80;97130.72;5004591;28;20104;-30
2021/07/17 04:23:42;;;;;;;8.32;6.35;;;;;;;28.29;41.69;97122.81;5006927;28;20628;-30
2021/07/17 04:26:08;;;;;;;7.85;6.18;;;;;;;28.28;41.88;97129.88;5002508;28;20036;-30
2021/07/17 04:28:34;;;;;;;11.43;6.53;;;;;;;28.29;41.93;97128.09;5004537;28;20053;-28
2021/07/17 04:31:00;;;;;;;7.47;6.45;;;;;;;28.29;42.01;97136.00;5004496;28;20025;-30
2021/07/17 04:33:25;;;;;;;9.82;6.35;;;;;;;28.27;42.07;97122.91;5024960;28;20552;-29
2021/07/17 04:35:50;;;;;;;10.10;6.38;;;;;;;28.28;41.85;97131.66;5005971;28;20056;-31
2021/07/17 04:38:16;;;;;;;6.50;5.80;;;;;;;28.29;41.89;97146.53;5003207;28;20042;-29
2021/07/17 04:40:41;;;;;;;7.07;5.88;;;;;;;28.29;41.79;97141.25;5005150;28;20116;-29
2021/07/17 04:43:07;;;;;;;7.50;5.53;;;;;;;28.29;41.83;97143.91;5000985;28;20511;-34
2021/07/17 04:45:32;;;;;;;7.38;5.97;;;;;;;28.30;41.75;97142.97;5003146;28;20033;-30
2021/07/17 04:47:58;;;;;;;7.55;5.40;;;;;;;28.30;41.73;97140.34;4997526;28;20033;-29
2021/07/17 04:50:24;;;;;;;8.30;5.57;;;;;;;28.30;41.89;97138.53;5005536;28;20034;-32
2021/07/17 04:52:49;;;;;;;6.85;6.00;;;;;;;28.30;41.92;97137.72;5021324;28;20672;-29
2021/07/17 04:55:15;;;;;;;7.13;5.72;;;;;;;28.31;41.85;97144.66;5008271;28;20099;-30
2021/07/17 04:57:41;;;;;;;9.88;6.30;;;;;;;28.30;41.87;97137.72;5002178;28;20693;-29
2021/07/17 05:00:07;;;;;;;6.75;6.05;;;;;;;28.31;41.87;97147.31;5004086;28;20034;-29
2021/07/17 05:02:50;;;;;;;8.40;6.30;;;;;;;28.31;41.87;97147.31;5003030;28;20033;-30
2021/07/17 05:05:44;;;;;;;7.60;5.85;;;;;;;28.31;41.87;97147.31;5003609;28;20036;-30
2021/07/17 05:08:10;;;;;;;7.53;6.10;;;;;;;28.32;41.83;97138.47;5001585;28;20408;-32
2021/07/17 05:10:35;;;;;;;8.65;5.70;;;;;;;28.30;41.89;97137.72;5003039;28;20029;-30
2021/07/17 05:13:13;;;;;;;10.05;5.65;;;;;;;28.31;41.80;97136.75;4998406;28;20037;-30
2021/07/17 05:15:39;;;;;;;8.35;5.97;;;;;;;28.30;41.80;97142.97;4996229;28;20763;-28
2021/07/17 05:18:05;;;;;;;8.63;6.25;;;;;;;28.30;42.07;97146.44;5004372;28;20144;-30
2021/07/17 05:20:30;;;;;;;7.65;5.78;;;;;;;28.30;41.92;97148.25;5005093;28;20041;-30
2021/07/17 05:22:56;;;;;;;8.63;5.93;;;;;;;28.30;41.96;97149.09;5001753;28;20071;-30
2021/07/17 05:25:21;;;;;;;10.02;5.63;;;;;;;28.30;41.94;97142.97;5004782;28;20026;-31
2021/07/17 05:27:47;;;;;;;7.13;5.78;;;;;;;28.30;41.94;97140.34;5003744;28;20088;-27
2021/07/17 05:30:13;;;;;;;9.27;5.70;;;;;;;28.30;41.91;97142.97;5007431;28;20026;-32
2021/07/17 05:32:38;;;;;;;9.60;5.97;;;;;;;28.31;41.80;97149.94;5004650;28;20038;-32
2021/07/17 05:35:04;;;;;;;10.82;5.82;;;;;;;28.30;42.11;97146.44;5002068;28;20036;-31
2021/07/17 05:37:29;;;;;;;9.27;6.07;;;;;;;28.31;41.88;97147.31;5004579;28;20365;-30
2021/07/17 05:39:55;;;;;;;6.57;5.53;;;;;;;28.30;41.87;97146.44;5001616;28;20026;-29
2021/07/17 05:42:20;;;;;;;8.55;5.88;;;;;;;28.32;41.99;97142.88;5003636;28;20021;-30
2021/07/17 05:44:46;;;;;;;7.80;6.07;;;;;;;28.32;41.97;97148.13;4984015;28;20106;-30
2021/07/17 05:47:11;;;;;;;7.18;5.15;;;;;;;28.32;42.04;97137.59;4997169;28;20038;-31
2021/07/17 05:49:37;;;;;;;10.60;5.68;;;;;;;28.31;41.97;97139.41;4998492;28;20961;-32
2021/07/17 05:52:02;;;;;;;7.13;5.20;;;;;;;28.32;41.94;97145.50;5001888;28;20125;-30
2021/07/17 05:54:28;;;;;;;6.97;5.22;;;;;;;28.30;41.66;97137.72;5007591;28;20247;-32
2021/07/17 05:56:54;;;;;;;6.22;5.07;;;;;;;28.32;41.94;97138.47;5010523;28;20117;-29
2021/07/17 05:59:19;;;;;;;9.98;5.90;;;;;;;28.32;41.67;97141.09;5003529;28;20033;-30
2021/07/17 06:01:44;;;;;;;6.25;4.68;;;;;;;28.32;42.00;97143.72;5008101;28;20029;-29
2021/07/17 06:04:10;;;;;;;8.80;5.28;;;;;;;28.32;41.83;97146.38;5009123;28;20095;-29
2021/07/17 06:06:35;;;;;;;7.20;5.40;;;;;;;28.34;41.89;97148.91;5005681;28;20025;-29
2021/07/17 06:09:00;;;;;;;8.48;4.88;;;;;;;28.33;41.97;97148.06;5005979;28;20036;-29
2021/07/17 06:11:29;;;;;;;10.80;5.35;;;;;;;28.33;41.97;97148.06;5002342;28;20018;-32
2021/07/17 06:13:55;;;;;;;5.90;4.93;;;;;;;28.37;41.91;97160.13;5000273;28;20060;-32
2021/07/17 06:16:20;;;;;;;8.30;5.05;;;;;;;28.35;41.98;97151.47;5004328;28;20017;-32
2021/07/17 06:18:45;;;;;;;13.93;5.45;;;;;;;28.34;41.93;97155.00;5009534;28;20026;-30
2021/07/17 06:21:11;;;;;;;15.32;6.10;;;;;;;28.33;41.96;97155.97;5011623;28;20021;-30
2021/07/17 06:23:36;;;;;;;11.27;5.32;;;;;;;28.29;41.90;97149.16;4994634;28;20549;-29
2021/07/17 06:26:02;;;;;;;7.68;4.78;;;;;;;28.33;41.81;97158.59;5004066;28;20037;-31
2021/07/17 06:28:27;;;;;;;12.18;4.80;;;;;;;28.35;41.82;97163.78;4996661;28;20040;-30
2021/07/17 06:30:53;;;;;;;8.70;4.80;;;;;;;28.33;41.85;97163.88;4997328;28;20030;-30
2021/07/17 06:33:18;;;;;;;15.32;5.10;;;;;;;28.33;41.96;97163.88;4995801;28;20795;-29
2021/07/17 06:35:43;;;;;;;21.77;5.28;;;;;;;28.34;41.99;97170.81;5007898;28;20021;-30
2021/07/17 06:38:09;;;;;;;12.05;4.88;;;;;;;28.34;41.97;97165.56;4996159;28;20549;-32
2021/07/17 06:40:34;;;;;;;14.80;5.30;;;;;;;28.34;41.90;97176.09;4996652;28;20121;-31
2021/07/17 06:43:00;;;;;;;24.40;5.78;;;;;;;28.35;42.02;97177.81;4996754;28;20519;-29
2021/07/17 06:45:25;;;;;;;12.30;5.07;;;;;;;28.36;42.29;97179.50;4998555;28;20366;-29
2021/07/17 06:47:50;;;;;;;23.17;8.23;;;;;;;28.33;42.27;97171.78;4997722;28;20412;-28
2021/07/17 06:50:17;;;;;;;22.95;9.40;;;;;;;28.34;41.81;97186.63;4999369;28;20512;-29
2021/07/17 06:52:43;;;;;;;24.27;9.95;;;;;;;28.34;41.81;97186.63;4998270;28;21329;-31
2021/07/17 06:55:09;;;;;;;23.63;10.73;;;;;;;28.30;41.56;97179.88;5003132;28;20037;-33
2021/07/17 06:57:35;;;;;;;23.15;9.65;;;;;;;28.29;41.43;97186.91;4998053;28;20155;-30
2021/07/17 07:00:00;;;;;;;22.02;9.43;;;;;;;28.27;41.42;97185.31;4998102;28;20156;-30
2021/07/17 07:02:26;;;;;;;20.17;9.60;;;;;;;28.26;41.33;97183.63;5004800;28;20096;-30
2021/07/17 07:04:51;;;;;;;20.35;8.70;;;;;;;28.25;41.50;97195.03;5004577;28;20029;-30
2021/07/17 07:07:16;;;;;;;16.52;8.70;;;;;;;28.23;41.30;97191.66;5005389;28;20022;-29
2021/07/17 07:09:42;;;;;;;22.20;8.48;;;;;;;28.19;41.31;97188.38;5001722;28;20068;-29
2021/07/17 07:12:07;;;;;;;23.13;9.30;;;;;;;28.21;41.27;97196.16;5005377;28;20025;-30
2021/07/17 07:14:33;;;;;;;17.85;8.45;;;;;;;28.18;41.42;97192.78;5001946;28;20026;-29
2021/07/17 07:16:58;;;;;;;18.20;8.35;;;;;;;28.17;41.31;97196.34;5001618;28;20099;-28
2021/07/17 07:19:24;;;;;;;21.80;8.82;;;;;;;28.15;41.31;97192.94;5001305;28;20025;-30
2021/07/17 07:21:49;;;;;;;17.48;8.75;;;;;;;28.13;41.22;97189.56;5004736;28;20033;-30
2021/07/17 07:24:15;;;;;;;19.92;8.88;;;;;;;28.11;41.27;97188.78;5005287;28;20034;-30
2021/07/17 07:26:40;;;;;;;26.90;9.07;;;;;;;28.10;41.38;97189.72;5003141;28;20036;-31
2021/07/17 07:29:05;;;;;;;18.52;8.43;;;;;;;28.09;41.32;97195.94;5003103;28;23048;-29
2021/07/17 07:31:31;;;;;;;16.58;8.68;;;;;;;28.07;41.11;97189.88;5003613;28;20534;-29
2021/07/17 07:33:56;;;;;;;14.95;9.70;;;;;;;28.05;41.36;97189.13;5001870;28;20026;-30
2021/07/17 07:36:22;;;;;;;18.20;10.30;;;;;;;28.02;41.26;97195.44;5001028;28;20029;-30
2021/07/17 07:38:47;;;;;;;15.68;9.65;;;;;;;28.00;41.28;97186.75;4998866;28;20644;-28
2021/07/17 07:41:13;;;;;;;16.00;9.45;;;;;;;27.98;41.32;97190.41;5001669;28;20044;-31
2021/07/17 07:43:38;;;;;;;16.67;8.77;;;;;;;27.97;41.31;97196.63;5001234;28;20123;-29
2021/07/17 07:46:05;;;;;;;20.20;9.65;;;;;;;27.95;41.42;97190.59;5001235;28;20023;-31
2021/07/17 07:48:30;;;;;;;18.08;9.48;;;;;;;27.96;41.29;97187.03;5001273;28;20037;-30
2021/07/17 07:50:56;;;;;;;18.75;9.20;;;;;;;27.92;41.30;97200.34;5000772;28;20032;-29
2021/07/17 07:53:22;;;;;;;18.13;8.85;;;;;;;27.90;41.35;97193.47;5000719;28;20076;-30
2021/07/17 07:55:47;;;;;;;18.25;9.30;;;;;;;27.89;41.34;97197.03;5001847;28;20051;-28
2021/07/17 07:58:12;;;;;;;17.02;8.55;;;;;;;27.87;41.58;97205.03;5000485;28;20029;-28
2021/07/17 08:00:39;;;;;;;18.02;8.57;;;;;;;27.86;41.55;97213.88;5000943;28;20083;-29
2021/07/17 08:03:04;;;;;;;14.15;9.13;;;;;;;27.84;41.45;97205.19;5001145;28;20029;-30
2021/07/17 08:05:29;;;;;;;14.27;8.45;;;;;;;27.84;41.62;97210.47;4997591;28;20574;-28
2021/07/17 08:07:55;;;;;;;16.10;9.35;;;;;;;27.81;41.80;97209.78;5000372;28;20041;-29
2021/07/17 08:10:20;;;;;;;13.73;8.63;;;;;;;27.80;41.62;97208.94;5001415;28;20040;-30
2021/07/17 08:12:46;;;;;;;19.55;8.68;;;;;;;27.79;41.66;97212.50;5001341;28;20037;-29
2021/07/17 08:15:12;;;;;;;14.55;8.02;;;;;;;27.78;41.69;97209.03;5002465;28;20025;-28
2021/07/17 08:17:37;;;;;;;15.07;8.50;;;;;;;27.76;41.94;97202.97;4999467;28;20033;-29
2021/07/17 08:20:07;;;;;;;15.45;9.10;;;;;;;27.78;41.88;97206.41;5000634;28;20559;-30
2021/07/17 08:22:33;;;;;;;12.00;8.70;;;;;;;27.78;41.78;97216.94;4984566;28;20037;-31
2021/07/17 08:24:59;;;;;;;13.15;8.73;;;;;;;27.78;41.95;97206.41;4999201;28;20030;-29
2021/07/17 08:27:24;;;;;;;13.40;8.27;;;;;;;27.80;41.91;97216.00;5000042;28;20037;-28
2021/07/17 08:29:49;;;;;;;17.60;9.25;;;;;;;27.79;41.93;97217.75;4995771;28;20040;-29
2021/07/17 08:32:15;;;;;;;17.08;10.05;;;;;;;27.78;41.89;97206.41;5002716;28;20060;-27
2021/07/17 08:34:40;;;;;;;23.02;12.95;;;;;;;27.75;41.76;97209.19;5003302;28;20037;-28
2021/07/17 08:37:06;;;;;;;22.08;13.70;;;;;;;27.68;41.49;97204.34;5004730;28;20516;-33
2021/07/17 08:39:31;;;;;;;21.77;14.05;;;;;;;27.59;41.73;97200.38;5005154;28;20044;-32
2021/07/17 08:41:56;;;;;;;23.23;12.27;;;;;;;27.53;41.74;97201.56;4998886;28;20033;-27
2021/07/17 08:44:22;;;;;;;22.45;12.27;;;;;;;27.48;42.10;97208.88;4985619;28;20982;-30
2021/07/17 08:46:47;;;;;;;19.80;12.10;;;;;;;27.45;42.30;97215.16;5003238;28;20030;-32
2021/07/17 08:49:13;;;;;;;21.27;11.20;;;;;;;27.44;42.50;97216.09;5000688;28;20047;-28
2021/07/17 08:51:38;;;;;;;20.85;10.90;;;;;;;27.44;42.62;97212.59;5007267;28;20029;-28
2021/07/17 08:54:04;;;;;;;20.17;11.35;;;;;;;27.46;42.59;97216.00;5006151;28;20087;-30
2021/07/17 08:56:30;;;;;;;23.92;11.60;;;;;;;27.47;42.59;97217.69;5002512;28;20022;-30
2021/07/17 08:58:55;;;;;;;30.80;11.50;;;;;;;27.49;42.67;97215.81;5002249;28;20726;-27
2021/07/17 09:01:21;;;;;;;24.90;10.80;;;;;;;27.51;42.73;97217.44;5000309;28;20069;-27
2021/07/17 09:03:48;;;;;;;18.95;10.32;;;;;;;27.53;42.42;97209.47;5000957;28;20029;-29
2021/07/17 09:06:13;;;;;;;23.10;11.48;;;;;;;27.55;42.52;97210.25;4998938;28;20107;-29
2021/07/17 09:08:38;;;;;;;19.02;11.02;;;;;;;27.57;42.56;97203.09;5002592;28;20034;-28
2021/07/17 09:11:06;;;;;;;19.48;10.63;;;;;;;27.59;42.62;97211.78;5003858;28;20033;-29
2021/07/17 09:13:33;;;;;;;18.33;10.02;;;;;;;27.61;42.55;97204.66;5007953;28;20061;-28
2021/07/17 09:16:05;;;;;;;23.60;10.50;;;;;;;27.63;42.55;97208.09;5001225;28;20076;-29
2021/07/17 09:18:36;;;;;;;33.70;10.15;;;;;;;27.67;42.54;97213.16;5000213;28;20322;-27
2021/07/17 09:21:12;;;;;;;34.05;11.50;;;;;;;27.68;42.51;97207.81;5002291;28;20087;-28
2021/07/17 09:23:49;;;;;;;34.42;11.85;;;;;;;27.70;42.54;97205.09;4998646;28;20344;-29
2021/07/17 09:27:07;;;;;;;24.95;9.95;;;;;;;-148.56;42.54;61375.16;5004174;28;20143;-29
2021/07/17 09:30:34;;;;;;;20.00;11.00;;;;;;;-148.56;100.00;61375.16;5005663;28;20030;-30
2021/07/17 09:33:00;;;;;;;17.95;8.43;;;;;;;27.83;42.25;97202.63;5003947;28;20106;-28
2021/07/17 09:35:26;;;;;;;23.48;11.13;;;;;;;27.79;42.50;97196.69;5007648;28;20021;-28
2021/07/17 09:37:55;;;;;;;24.23;9.50;;;;;;;27.78;42.26;97195.88;5003940;28;20041;-30
2021/07/17 09:40:21;;;;;;;21.40;9.77;;;;;;;27.80;42.28;97197.56;5003504;28;20060;-29
2021/07/17 09:42:47;;;;;;;26.63;9.88;;;;;;;27.78;42.36;97195.88;5005028;28;20042;-29
2021/07/17 09:45:12;;;;;;;31.08;9.75;;;;;;;27.79;42.40;97196.69;5006574;28;20561;-30
2021/07/17 09:47:38;;;;;;;28.45;10.10;;;;;;;27.80;42.27;97198.38;4989131;28;20025;-31
2021/07/17 09:50:16;;;;;;;18.75;9.48;;;;;;;27.82;42.48;97201.81;5005646;28;20084;-30
2021/07/17 09:52:42;;;;;;;23.45;8.70;;;;;;;27.82;42.47;97200.94;5003111;28;20029;-28
2021/07/17 09:55:12;;;;;;;22.15;9.10;;;;;;;27.81;42.47;97200.13;5006315;28;20026;-29
2021/07/17 09:57:37;;;;;;;26.30;9.95;;;;;;;27.82;42.36;97193.91;5006264;28;20096;-28
2021/07/17 10:00:07;;;;;;;23.40;9.02;;;;;;;27.84;42.32;97189.38;5006639;28;20543;-31
2021/07/17 10:02:36;;;;;;;19.75;9.32;;;;;;;27.84;42.56;97189.38;5004759;28;20038;-30
2021/07/17 10:05:03;;;;;;;18.75;9.55;;;;;;;27.83;42.52;97185.06;5005647;28;20037;-30
2021/07/17 10:08:17;;;;;;;16.33;10.38;;;;;;;-148.56;42.52;49386.41;5007044;28;21064;-31
2021/07/17 10:10:44;;;;;;;16.65;8.48;;;;;;;27.85;42.52;97179.72;5004846;28;20065;-30
2021/07/17 10:13:09;;;;;;;17.70;9.10;;;;;;;27.82;42.42;97175.47;5009659;28;20026;-31
2021/07/17 10:15:35;;;;;;;15.68;8.85;;;;;;;27.83;42.55;97177.16;5008947;28;20041;-30
2021/07/17 10:18:23;;;;;;;14.63;8.45;;;;;;;27.83;42.50;97174.53;5004098;28;20559;-28
2021/07/17 10:20:52;;;;;;;37.22;7.72;;;;;;;27.82;42.50;97167.56;5001930;28;20038;-29
2021/07/17 10:23:18;;;;;;;20.90;8.95;;;;;;;27.83;42.38;97174.53;5001016;28;20046;-32
2021/07/17 10:25:44;;;;;;;21.67;9.63;;;;;;;27.85;42.48;97180.56;5004400;28;20033;-30
2021/07/17 10:28:10;;;;;;;23.70;9.05;;;;;;;27.85;42.68;97171.81;5004773;28;20515;-28
2021/07/17 10:30:35;;;;;;;21.38;9.82;;;;;;;27.86;42.54;97165.59;5003183;28;20033;-28
2021/07/17 10:33:01;;;;;;;25.40;9.23;;;;;;;27.86;42.69;97161.19;5012588;28;20076;-27
2021/07/17 10:35:26;;;;;;;39.25;10.63;;;;;;;27.87;42.63;97165.53;5005472;28;20033;-29
2021/07/17 10:37:51;;;;;;;59.55;11.25;;;;;;;27.88;42.53;97158.47;4986490;28;20021;-28
2021/07/17 10:40:17;;;;;;;33.72;9.63;;;;;;;27.87;42.77;97152.34;4983958;28;20053;-27
2021/07/17 10:42:50;;;;;;;25.08;9.88;;;;;;;27.88;42.74;97161.94;5004377;28;20112;-30
2021/07/17 10:45:35;;;;;;;29.15;9.60;;;;;;;27.89;42.49;97155.75;5006233;28;20531;-28
2021/07/17 10:48:00;;;;;;;23.13;9.50;;;;;;;27.89;42.66;97166.28;5004220;28;20072;-30
2021/07/17 10:50:33;;;;;;;24.63;10.13;;;;;;;27.89;42.90;97163.63;5005927;28;20542;-30
2021/07/17 10:52:58;;;;;;;22.10;10.30;;;;;;;27.90;42.86;97161.88;5008398;28;20234;-31
2021/07/17 10:55:25;;;;;;;33.30;11.25;;;;;;;27.89;42.90;97162.81;5006506;28;20041;-29
2021/07/17 10:57:51;;;;;;;23.45;10.60;;;;;;;27.88;42.86;97161.94;5007534;28;20052;-31
2021/07/17 11:00:42;;;;;;;20.88;9.80;;;;;;;27.89;42.84;97163.63;5004489;28;20033;-29
2021/07/17 11:03:18;;;;;;;18.63;9.45;;;;;;;27.90;42.73;97167.13;5008550;28;20029;-29
2021/07/17 11:05:43;;;;;;;18.83;10.00;;;;;;;27.89;42.89;97166.28;5007607;28;20034;-30
2021/07/17 11:08:34;;;;;;;23.73;8.82;;;;;;;27.90;43.06;97162.72;4990845;28;20034;-31
2021/07/17 11:11:01;;;;;;;18.15;9.43;;;;;;;27.91;43.08;97167.06;5005918;28;20032;-30
2021/07/17 11:13:34;;;;;;;20.17;10.93;;;;;;;27.92;42.72;97160.84;5009274;28;20706;-28
2021/07/17 11:16:00;;;;;;;19.13;10.65;;;;;;;27.92;42.60;97163.47;5008564;28;20108;-31
2021/07/17 11:18:26;;;;;;;12.70;9.02;;;;;;;27.94;42.62;97165.16;5010136;28;20029;-29
2021/07/17 11:20:58;;;;;;;20.05;9.75;;;;;;;27.94;42.59;97160.75;5008218;28;20079;-31
2021/07/17 11:23:23;;;;;;;14.95;9.65;;;;;;;27.96;42.76;97160.69;5009424;28;20021;-31
2021/07/17 11:26:04;;;;;;;15.00;8.63;;;;;;;27.97;42.82;97157.09;5006960;28;20080;-30
2021/07/17 11:28:46;;;;;;;18.52;8.10;;;;;;;27.97;42.91;97165.88;5002955;28;20049;-31